MAPA DE AEROPUERTO

INFORMACIÓN METAR y TAF

METAR FOR LFPG
ADDS - METARS form results

(0113 UTC 22 February 2020)
Data provider http://aviationweather.gov/metar/data/
 
METAR text: LFPG 220100Z 19006KT CAVOK 05/02 Q1028 NOSIG
Conditions at: LFPG (CHARLES DE GAULL, FR) observed 0100 UTC 22 February 2020
Temperature: 5.0°C (41°F)
Dewpoint: 2.0°C (36°F) [RH = 81%]
Pressure (altimeter): 30.35 inches Hg (1028.0 mb)
Winds: from the S (190 degrees) at 7 MPH (6 knots; 3.1 m/s)
Visibility: 6 or more miles (10+ km)
Ceiling: ceiling and visibility are OK
Clouds: unknown
Weather: no significant weather observed at this time

METAR text: LFPG 220030Z 18004KT CAVOK 04/01 Q1028 NOSIG
Conditions at: LFPG (CHARLES DE GAULL, FR) observed 0030 UTC 22 February 2020
Temperature: 4.0°C (39°F)
Dewpoint: 1.0°C (34°F) [RH = 81%]
Pressure (altimeter): 30.35 inches Hg (1028.0 mb)
Winds: from the S (180 degrees) at 5 MPH (4 knots; 2.1 m/s)
Visibility: 6 or more miles (10+ km)
Ceiling: ceiling and visibility are OK
Clouds: unknown
Weather: no significant weather observed at this time

Forecast for: LFPG (CHARLES DE GAULL, FR)
Text: TAF LFPG 212300Z 2200/2306 21010KT CAVOK TX12/2214Z TN03/2206Z
Forecast period: 0000 to 1900 UTC 22 February 2020
Forecast type: FROM: standard forecast or significant change
Winds: from the SSW (210 degrees) at 12 MPH (10 knots; 5.1 m/s)
Visibility: 6 or more miles 10+ km)
Ceiling: unknown
Clouds: missing
Weather: no significant weather forecast for this period
Text: PROB30
Forecast period: 0500 to 0900 UTC 22 February 2020
Forecast type: TEMPORARY: The following changes expected for less than half the time period
Visibility: missing
Ceiling: 800 feet AGL
Clouds: broken clouds at 800 feet AGL
Weather: no significant weather forecast for this period
Text: TEMPO 2205/2209 BKN008
Forecast period: 0900 to 1900 UTC 22 February 2020
Forecast type: TEMPORARY: The following changes expected for less than half the time period
Winds: from the SW (230 degrees) at 17 MPH (15 knots; 7.7 m/s)
gusting to 29 MPH (25 knots; 12.9 m/s)
Visibility: missing
Ceiling: unknown
Clouds: missing
Weather: no significant weather forecast for this period
Text: TEMPO 2209/2219 23015G25KT
Forecast period: 1900 UTC 22 February 2020 to 0600 UTC 23 February 2020
Forecast type: BECOMING: Conditions expected to become as follows by 2200 UTC 22 February 2020
Winds: from the SSW (210 degrees) at 12 MPH (10 knots; 5.1 m/s)
Visibility: 6 or more miles 10+ km)
Ceiling: 1200 feet AGL
Clouds: broken clouds at 1200 feet AGL
Weather: no significant weather forecast for this period
Text: BECMG 2219/2222 BKN012
Forecast period: 2300 UTC 22 February 2020 to 0600 UTC 23 February 2020
Forecast type: TEMPORARY: The following changes expected for less than half the time period
Visibility: 1.86 miles (2.99 km)
Ceiling: 500 feet AGL
Clouds: broken clouds at 500 feet AGL
Weather: DZ  (moderate drizzle)